createdAt,value
2019-05-29T00:06:16.000Z,21.19
2019-05-29T00:16:17.000Z,21.17
2019-05-29T00:26:16.000Z,21.13
2019-05-29T00:36:16.000Z,21.1
2019-05-29T00:46:16.000Z,21.07
2019-05-29T00:56:18.000Z,21.04
2019-05-29T01:06:16.000Z,21.01
2019-05-29T01:16:16.000Z,20.98
2019-05-29T01:26:19.000Z,20.94
2019-05-29T01:36:16.000Z,20.92
2019-05-29T01:46:16.000Z,20.88
2019-05-29T01:56:16.000Z,20.87
2019-05-29T02:06:16.000Z,20.84
2019-05-29T02:16:17.000Z,20.81
2019-05-29T02:26:17.000Z,20.81
2019-05-29T02:36:17.000Z,20.79
2019-05-29T02:46:19.000Z,20.73
2019-05-29T03:06:19.000Z,20.68
2019-05-29T03:16:17.000Z,20.63
2019-05-29T03:26:17.000Z,20.63
2019-05-29T03:36:18.000Z,20.59
2019-05-29T03:46:20.000Z,20.58
2019-05-29T03:56:17.000Z,20.59
2019-05-29T04:06:17.000Z,20.56
2019-05-29T04:16:17.000Z,20.55
2019-05-29T04:26:18.000Z,20.52
2019-05-29T04:46:17.000Z,20.54
2019-05-29T04:56:17.000Z,20.54
2019-05-29T05:06:17.000Z,20.6
2019-05-29T05:16:17.000Z,20.62
2019-05-29T05:26:17.000Z,20.7
2019-05-29T05:36:17.000Z,20.76
2019-05-29T05:46:17.000Z,20.84
2019-05-29T05:56:17.000Z,20.88
2019-05-29T06:06:17.000Z,20.92
2019-05-29T06:16:19.000Z,21.05
2019-05-29T06:26:17.000Z,21.12
2019-05-29T06:36:17.000Z,21.16
2019-05-29T06:46:17.000Z,21.22
2019-05-29T06:56:17.000Z,21.25
2019-05-29T07:06:17.000Z,21.29
2019-05-29T07:16:17.000Z,21.28
2019-05-29T07:26:19.000Z,21.27
2019-05-29T07:36:17.000Z,21.3
2019-05-29T07:46:17.000Z,21.38
2019-05-29T07:56:18.000Z,21.5
2019-05-29T08:06:17.000Z,21.62
2019-05-29T08:16:17.000Z,21.81
2019-05-29T08:26:17.000Z,21.93
2019-05-29T08:36:17.000Z,21.93
2019-05-29T08:46:18.000Z,22.02
2019-05-29T08:56:17.000Z,22.04
2019-05-29T09:16:17.000Z,22.23
2019-05-29T09:36:17.000Z,22.36
2019-05-29T09:46:17.000Z,22.41
2019-05-29T09:56:17.000Z,22.48
2019-05-29T10:06:17.000Z,22.52
2019-05-29T10:16:20.000Z,22.57
2019-05-29T10:26:18.000Z,22.63
2019-05-29T10:36:17.000Z,22.69
2019-05-29T10:46:18.000Z,22.74
2019-05-29T10:56:18.000Z,22.78
2019-05-29T11:06:18.000Z,22.81
2019-05-29T11:16:18.000Z,22.86
2019-05-29T11:26:18.000Z,22.91
2019-05-29T11:36:18.000Z,22.98
2019-05-29T11:46:18.000Z,23.01
2019-05-29T11:56:19.000Z,23.06
2019-05-29T12:06:18.000Z,23.09
2019-05-29T12:16:18.000Z,23.09
2019-05-29T12:26:18.000Z,23.11
2019-05-29T12:36:18.000Z,23.12
2019-05-29T12:46:18.000Z,23.11
2019-05-29T12:56:18.000Z,23.13
2019-05-29T13:06:19.000Z,23.15
2019-05-29T13:16:18.000Z,23.15
2019-05-29T13:26:18.000Z,23.16
2019-05-29T13:36:18.000Z,23.15
2019-05-29T13:46:18.000Z,23.19
2019-05-29T13:56:18.000Z,23.21
2019-05-29T14:06:19.000Z,23.19
2019-05-29T14:16:18.000Z,23.19
2019-05-29T14:26:18.000Z,23.23
2019-05-29T14:46:18.000Z,23.23
2019-05-29T14:56:19.000Z,23.19
2019-05-29T15:06:18.000Z,23.2
2019-05-29T15:16:18.000Z,23.16
2019-05-29T15:26:19.000Z,23.17
2019-05-29T15:36:18.000Z,23.16
2019-05-29T15:46:18.000Z,23.16
2019-05-29T15:56:18.000Z,23.13
2019-05-29T16:06:18.000Z,23.08
2019-05-29T16:16:18.000Z,23.06
2019-05-29T16:26:18.000Z,23.12
2019-05-29T16:36:18.000Z,23.14
2019-05-29T16:46:18.000Z,23.09
2019-05-29T16:56:19.000Z,23.1
2019-05-29T17:06:18.000Z,23.1
2019-05-29T17:16:18.000Z,23.11
2019-05-29T17:26:19.000Z,23.13
2019-05-29T17:36:18.000Z,23.13
2019-05-29T17:46:18.000Z,23.12
2019-05-29T17:56:18.000Z,23.12
2019-05-29T18:06:18.000Z,23.13
2019-05-29T18:16:18.000Z,23.12
2019-05-29T18:26:20.000Z,23.13
2019-05-29T18:36:19.000Z,23.13
2019-05-29T18:46:18.000Z,23.12
2019-05-29T18:56:19.000Z,23.12
2019-05-29T19:06:18.000Z,23.12
2019-05-29T19:16:19.000Z,23.09
2019-05-29T19:26:19.000Z,23.07
2019-05-29T19:36:19.000Z,23.06
2019-05-29T19:46:19.000Z,23.07
2019-05-29T19:56:19.000Z,23.01
2019-05-29T20:06:23.000Z,22.97
2019-05-29T20:16:19.000Z,22.95
2019-05-29T20:26:19.000Z,22.91
2019-05-29T20:36:19.000Z,22.87
2019-05-29T20:46:19.000Z,22.84
2019-05-29T20:56:19.000Z,22.8
2019-05-29T21:06:19.000Z,22.79
2019-05-29T21:16:19.000Z,22.79
2019-05-29T21:26:19.000Z,22.62
2019-05-29T21:36:19.000Z,22.68
2019-05-29T21:46:19.000Z,22.59
2019-05-29T21:56:19.000Z,22.58
2019-05-29T22:06:19.000Z,22.55
2019-05-29T22:16:20.000Z,22.51
2019-05-29T22:26:19.000Z,22.48
2019-05-29T22:36:19.000Z,22.43
2019-05-29T22:46:19.000Z,22.39
2019-05-29T22:56:19.000Z,22.36
2019-05-29T23:06:19.000Z,22.32
2019-05-29T23:16:19.000Z,22.33
2019-05-29T23:26:19.000Z,22.28
2019-05-29T23:36:19.000Z,22.21
2019-05-29T23:46:20.000Z,22.19
2019-05-29T23:56:19.000Z,22.13
